sensor_id;sensor_type;location;lat;lon;timestamp;P1;durP1;ratioP1;P2;durP2;ratioP2
40162;SDS011;25881;47.462;19.304;2022-08-19T00:00:35;12.50;;;8.02;;
40162;SDS011;25881;47.462;19.304;2022-08-19T00:03:01;12.82;;;8.35;;
40162;SDS011;25881;47.462;19.304;2022-08-19T00:05:26;9.67;;;8.10;;
40162;SDS011;25881;47.462;19.304;2022-08-19T00:07:51;10.57;;;8.10;;
40162;SDS011;25881;47.462;19.304;2022-08-19T00:10:17;13.07;;;8.47;;
40162;SDS011;25881;47.462;19.304;2022-08-19T00:12:42;11.52;;;8.25;;
40162;SDS011;25881;47.462;19.304;2022-08-19T00:15:09;14.02;;;8.45;;
40162;SDS011;25881;47.462;19.304;2022-08-19T00:17:38;10.98;;;7.85;;
40162;SDS011;25881;47.462;19.304;2022-08-19T00:20:06;16.02;;;9.73;;
40162;SDS011;25881;47.462;19.304;2022-08-19T00:22:31;13.90;;;8.68;;
40162;SDS011;25881;47.462;19.304;2022-08-19T00:24:58;10.55;;;7.57;;
40162;SDS011;25881;47.462;19.304;2022-08-19T00:27:23;15.27;;;7.77;;
40162;SDS011;25881;47.462;19.304;2022-08-19T00:29:48;9.95;;;8.00;;
40162;SDS011;25881;47.462;19.304;2022-08-19T00:32:14;14.83;;;9.17;;
40162;SDS011;25881;47.462;19.304;2022-08-19T00:34:39;12.07;;;8.70;;
40162;SDS011;25881;47.462;19.304;2022-08-19T00:37:04;9.57;;;8.17;;
40162;SDS011;25881;47.462;19.304;2022-08-19T00:39:29;18.70;;;9.20;;
40162;SDS011;25881;47.462;19.304;2022-08-19T00:41:55;8.93;;;8.00;;
40162;SDS011;25881;47.462;19.304;2022-08-19T00:44:22;10.70;;;8.40;;
40162;SDS011;25881;47.462;19.304;2022-08-19T00:46:48;11.43;;;9.17;;
40162;SDS011;25881;47.462;19.304;2022-08-19T00:49:19;12.52;;;9.20;;
40162;SDS011;25881;47.462;19.304;2022-08-19T00:51:46;10.32;;;8.57;;
40162;SDS011;25881;47.462;19.304;2022-08-19T00:54:11;13.95;;;8.38;;
40162;SDS011;25881;47.462;19.304;2022-08-19T00:56:37;9.73;;;8.15;;
40162;SDS011;25881;47.462;19.304;2022-08-19T00:59:02;11.68;;;8.32;;
40162;SDS011;25881;47.462;19.304;2022-08-19T01:01:33;12.02;;;8.40;;
40162;SDS011;25881;47.462;19.304;2022-08-19T01:03:58;15.00;;;8.50;;
40162;SDS011;25881;47.462;19.304;2022-08-19T01:06:24;11.27;;;8.53;;
40162;SDS011;25881;47.462;19.304;2022-08-19T01:08:49;11.48;;;7.88;;
40162;SDS011;25881;47.462;19.304;2022-08-19T01:11:15;10.03;;;8.33;;
40162;SDS011;25881;47.462;19.304;2022-08-19T01:13:40;10.63;;;9.50;;
40162;SDS011;25881;47.462;19.304;2022-08-19T01:16:07;9.57;;;8.07;;
40162;SDS011;25881;47.462;19.304;2022-08-19T01:18:35;12.05;;;8.48;;
40162;SDS011;25881;47.462;19.304;2022-08-19T01:21:03;10.95;;;8.75;;
40162;SDS011;25881;47.462;19.304;2022-08-19T01:23:29;13.60;;;9.13;;
40162;SDS011;25881;47.462;19.304;2022-08-19T01:26:08;11.75;;;9.05;;
40162;SDS011;25881;47.462;19.304;2022-08-19T01:28:35;10.63;;;8.10;;
40162;SDS011;25881;47.462;19.304;2022-08-19T01:31:00;14.05;;;8.05;;
40162;SDS011;25881;47.462;19.304;2022-08-19T01:33:26;11.03;;;8.40;;
40162;SDS011;25881;47.462;19.304;2022-08-19T01:35:51;12.93;;;9.53;;
40162;SDS011;25881;47.462;19.304;2022-08-19T01:38:22;11.52;;;8.30;;
40162;SDS011;25881;47.462;19.304;2022-08-19T01:40:48;13.07;;;9.13;;
40162;SDS011;25881;47.462;19.304;2022-08-19T01:43:14;14.27;;;10.05;;
40162;SDS011;25881;47.462;19.304;2022-08-19T01:45:40;12.93;;;9.10;;
40162;SDS011;25881;47.462;19.304;2022-08-19T01:48:08;13.00;;;8.55;;
40162;SDS011;25881;47.462;19.304;2022-08-19T01:52:59;9.88;;;8.73;;
40162;SDS011;25881;47.462;19.304;2022-08-19T01:55:25;10.93;;;8.60;;
40162;SDS011;25881;47.462;19.304;2022-08-19T01:57:52;10.50;;;8.63;;
40162;SDS011;25881;47.462;19.304;2022-08-19T02:00:19;11.27;;;9.02;;
40162;SDS011;25881;47.462;19.304;2022-08-19T02:02:45;13.95;;;8.75;;
40162;SDS011;25881;47.462;19.304;2022-08-19T02:05:10;11.50;;;8.40;;
40162;SDS011;25881;47.462;19.304;2022-08-19T02:07:36;13.98;;;9.20;;
40162;SDS011;25881;47.462;19.304;2022-08-19T02:10:05;9.80;;;8.23;;
40162;SDS011;25881;47.462;19.304;2022-08-19T02:12:30;13.57;;;8.73;;
40162;SDS011;25881;47.462;19.304;2022-08-19T02:14:55;12.87;;;8.40;;
40162;SDS011;25881;47.462;19.304;2022-08-19T02:17:21;16.53;;;9.33;;
40162;SDS011;25881;47.462;19.304;2022-08-19T02:19:46;11.03;;;8.97;;
40162;SDS011;25881;47.462;19.304;2022-08-19T02:22:13;11.93;;;8.48;;
40162;SDS011;25881;47.462;19.304;2022-08-19T02:24:39;9.30;;;7.97;;
40162;SDS011;25881;47.462;19.304;2022-08-19T02:27:04;11.50;;;9.27;;
40162;SDS011;25881;47.462;19.304;2022-08-19T02:29:30;13.95;;;8.80;;
40162;SDS011;25881;47.462;19.304;2022-08-19T02:31:55;11.53;;;8.33;;
40162;SDS011;25881;47.462;19.304;2022-08-19T02:34:21;17.07;;;8.67;;
40162;SDS011;25881;47.462;19.304;2022-08-19T02:36:46;11.23;;;8.60;;
40162;SDS011;25881;47.462;19.304;2022-08-19T02:39:11;9.70;;;8.20;;
40162;SDS011;25881;47.462;19.304;2022-08-19T02:41:36;9.87;;;8.47;;
40162;SDS011;25881;47.462;19.304;2022-08-19T02:44:02;13.33;;;8.93;;
40162;SDS011;25881;47.462;19.304;2022-08-19T02:46:30;11.50;;;8.95;;
40162;SDS011;25881;47.462;19.304;2022-08-19T02:48:57;10.88;;;8.43;;
40162;SDS011;25881;47.462;19.304;2022-08-19T02:51:23;15.90;;;9.02;;
40162;SDS011;25881;47.462;19.304;2022-08-19T02:53:49;13.20;;;9.00;;
40162;SDS011;25881;47.462;19.304;2022-08-19T02:56:14;10.47;;;8.30;;
40162;SDS011;25881;47.462;19.304;2022-08-19T02:58:40;10.18;;;9.00;;
40162;SDS011;25881;47.462;19.304;2022-08-19T03:01:05;13.32;;;9.77;;
40162;SDS011;25881;47.462;19.304;2022-08-19T03:03:31;11.77;;;8.60;;
40162;SDS011;25881;47.462;19.304;2022-08-19T03:06:10;9.48;;;8.57;;
40162;SDS011;25881;47.462;19.304;2022-08-19T03:08:36;11.10;;;8.80;;
40162;SDS011;25881;47.462;19.304;2022-08-19T03:11:01;11.00;;;8.63;;
40162;SDS011;25881;47.462;19.304;2022-08-19T03:13:27;10.98;;;8.52;;
40162;SDS011;25881;47.462;19.304;2022-08-19T03:15:53;13.57;;;8.30;;
40162;SDS011;25881;47.462;19.304;2022-08-19T03:18:18;11.57;;;8.33;;
40162;SDS011;25881;47.462;19.304;2022-08-19T03:20:47;9.53;;;8.10;;
40162;SDS011;25881;47.462;19.304;2022-08-19T03:23:13;13.25;;;8.55;;
40162;SDS011;25881;47.462;19.304;2022-08-19T03:25:43;10.00;;;8.80;;
40162;SDS011;25881;47.462;19.304;2022-08-19T03:28:12;9.88;;;8.13;;
40162;SDS011;25881;47.462;19.304;2022-08-19T03:30:38;11.27;;;8.23;;
40162;SDS011;25881;47.462;19.304;2022-08-19T03:33:04;13.70;;;9.13;;
40162;SDS011;25881;47.462;19.304;2022-08-19T03:35:30;18.55;;;8.90;;
40162;SDS011;25881;47.462;19.304;2022-08-19T03:37:55;14.57;;;8.10;;
40162;SDS011;25881;47.462;19.304;2022-08-19T03:40:21;14.27;;;8.85;;
40162;SDS011;25881;47.462;19.304;2022-08-19T03:42:46;11.02;;;8.32;;
40162;SDS011;25881;47.462;19.304;2022-08-19T03:45:12;11.77;;;9.23;;
40162;SDS011;25881;47.462;19.304;2022-08-19T03:47:37;10.00;;;8.53;;
40162;SDS011;25881;47.462;19.304;2022-08-19T03:50:02;11.98;;;8.82;;
40162;SDS011;25881;47.462;19.304;2022-08-19T03:52:28;9.90;;;8.65;;
40162;SDS011;25881;47.462;19.304;2022-08-19T03:54:53;10.15;;;8.82;;
40162;SDS011;25881;47.462;19.304;2022-08-19T03:57:19;10.10;;;8.50;;
40162;SDS011;25881;47.462;19.304;2022-08-19T03:59:44;14.13;;;8.47;;
40162;SDS011;25881;47.462;19.304;2022-08-19T04:02:10;12.03;;;8.43;;
40162;SDS011;25881;47.462;19.304;2022-08-19T04:04:37;10.52;;;7.63;;
40162;SDS011;25881;47.462;19.304;2022-08-19T04:07:02;13.02;;;8.38;;
40162;SDS011;25881;47.462;19.304;2022-08-19T04:09:28;13.13;;;8.30;;
40162;SDS011;25881;47.462;19.304;2022-08-19T04:11:54;13.03;;;8.77;;
40162;SDS011;25881;47.462;19.304;2022-08-19T04:14:21;11.40;;;8.10;;
40162;SDS011;25881;47.462;19.304;2022-08-19T04:16:47;10.60;;;8.57;;
40162;SDS011;25881;47.462;19.304;2022-08-19T04:19:13;14.50;;;8.52;;
40162;SDS011;25881;47.462;19.304;2022-08-19T04:21:38;13.75;;;8.65;;
40162;SDS011;25881;47.462;19.304;2022-08-19T04:24:04;9.57;;;7.97;;
40162;SDS011;25881;47.462;19.304;2022-08-19T04:26:30;9.15;;;7.85;;
40162;SDS011;25881;47.462;19.304;2022-08-19T04:29:03;13.88;;;8.48;;
40162;SDS011;25881;47.462;19.304;2022-08-19T04:31:30;10.50;;;7.75;;
40162;SDS011;25881;47.462;19.304;2022-08-19T04:33:56;10.98;;;8.73;;
40162;SDS011;25881;47.462;19.304;2022-08-19T04:36:25;14.30;;;8.50;;
40162;SDS011;25881;47.462;19.304;2022-08-19T04:38:52;9.60;;;7.07;;
40162;SDS011;25881;47.462;19.304;2022-08-19T04:44:02;11.07;;;8.07;;
40162;SDS011;25881;47.462;19.304;2022-08-19T04:46:28;12.18;;;7.55;;
40162;SDS011;25881;47.462;19.304;2022-08-19T04:48:55;12.60;;;7.78;;
40162;SDS011;25881;47.462;19.304;2022-08-19T04:51:21;9.63;;;7.88;;
40162;SDS011;25881;47.462;19.304;2022-08-19T04:53:46;11.23;;;7.63;;
40162;SDS011;25881;47.462;19.304;2022-08-19T04:56:13;9.63;;;7.63;;
40162;SDS011;25881;47.462;19.304;2022-08-19T04:58:40;13.00;;;7.95;;
40162;SDS011;25881;47.462;19.304;2022-08-19T05:01:07;12.48;;;7.78;;
40162;SDS011;25881;47.462;19.304;2022-08-19T05:03:33;12.88;;;7.80;;
40162;SDS011;25881;47.462;19.304;2022-08-19T05:06:09;9.50;;;7.43;;
40162;SDS011;25881;47.462;19.304;2022-08-19T05:08:35;13.10;;;8.27;;
40162;SDS011;25881;47.462;19.304;2022-08-19T05:11:06;9.85;;;7.35;;
40162;SDS011;25881;47.462;19.304;2022-08-19T05:13:32;10.52;;;7.50;;
40162;SDS011;25881;47.462;19.304;2022-08-19T05:15:58;10.35;;;7.78;;
40162;SDS011;25881;47.462;19.304;2022-08-19T05:18:23;8.90;;;6.55;;
40162;SDS011;25881;47.462;19.304;2022-08-19T05:21:08;8.13;;;6.97;;
40162;SDS011;25881;47.462;19.304;2022-08-19T05:23:51;8.63;;;7.00;;
40162;SDS011;25881;47.462;19.304;2022-08-19T05:26:17;8.45;;;6.70;;
40162;SDS011;25881;47.462;19.304;2022-08-19T05:28:42;12.10;;;7.60;;
40162;SDS011;25881;47.462;19.304;2022-08-19T05:31:07;10.67;;;7.63;;
40162;SDS011;25881;47.462;19.304;2022-08-19T05:33:32;12.10;;;7.10;;
40162;SDS011;25881;47.462;19.304;2022-08-19T05:35:58;11.07;;;7.43;;
40162;SDS011;25881;47.462;19.304;2022-08-19T05:38:23;12.25;;;7.38;;
40162;SDS011;25881;47.462;19.304;2022-08-19T05:40:49;9.73;;;7.05;;
40162;SDS011;25881;47.462;19.304;2022-08-19T05:43:15;10.20;;;7.60;;
40162;SDS011;25881;47.462;19.304;2022-08-19T05:45:41;9.02;;;6.85;;
40162;SDS011;25881;47.462;19.304;2022-08-19T05:48:07;8.88;;;6.90;;
40162;SDS011;25881;47.462;19.304;2022-08-19T05:50:32;8.85;;;6.70;;
40162;SDS011;25881;47.462;19.304;2022-08-19T05:52:57;8.70;;;7.15;;
40162;SDS011;25881;47.462;19.304;2022-08-19T05:55:22;14.17;;;7.23;;
40162;SDS011;25881;47.462;19.304;2022-08-19T05:57:48;12.30;;;6.75;;
40162;SDS011;25881;47.462;19.304;2022-08-19T06:00:13;8.53;;;7.57;;
40162;SDS011;25881;47.462;19.304;2022-08-19T06:02:39;7.97;;;7.18;;
40162;SDS011;25881;47.462;19.304;2022-08-19T06:05:05;14.57;;;7.10;;
40162;SDS011;25881;47.462;19.304;2022-08-19T06:07:33;14.10;;;7.55;;
40162;SDS011;25881;47.462;19.304;2022-08-19T06:09:59;10.83;;;6.73;;
40162;SDS011;25881;47.462;19.304;2022-08-19T06:12:24;11.70;;;8.03;;
40162;SDS011;25881;47.462;19.304;2022-08-19T06:14:53;11.02;;;7.05;;
40162;SDS011;25881;47.462;19.304;2022-08-19T06:17:19;9.27;;;7.75;;
40162;SDS011;25881;47.462;19.304;2022-08-19T06:19:46;8.13;;;7.20;;
40162;SDS011;25881;47.462;19.304;2022-08-19T06:22:11;8.17;;;7.37;;
40162;SDS011;25881;47.462;19.304;2022-08-19T06:24:37;10.18;;;7.03;;
40162;SDS011;25881;47.462;19.304;2022-08-19T06:27:03;8.17;;;7.07;;
40162;SDS011;25881;47.462;19.304;2022-08-19T06:29:30;8.33;;;6.97;;
40162;SDS011;25881;47.462;19.304;2022-08-19T06:31:57;11.75;;;6.72;;
40162;SDS011;25881;47.462;19.304;2022-08-19T06:34:23;8.60;;;7.28;;
40162;SDS011;25881;47.462;19.304;2022-08-19T06:36:50;11.20;;;7.90;;
40162;SDS011;25881;47.462;19.304;2022-08-19T06:39:17;14.88;;;7.03;;
40162;SDS011;25881;47.462;19.304;2022-08-19T06:41:44;9.68;;;6.85;;
40162;SDS011;25881;47.462;19.304;2022-08-19T06:44:10;9.15;;;6.13;;
40162;SDS011;25881;47.462;19.304;2022-08-19T06:46:36;9.40;;;7.47;;
40162;SDS011;25881;47.462;19.304;2022-08-19T06:49:01;10.52;;;6.88;;
40162;SDS011;25881;47.462;19.304;2022-08-19T06:51:26;9.57;;;6.40;;
40162;SDS011;25881;47.462;19.304;2022-08-19T06:53:53;12.77;;;6.63;;
40162;SDS011;25881;47.462;19.304;2022-08-19T06:56:23;11.50;;;7.03;;
40162;SDS011;25881;47.462;19.304;2022-08-19T06:58:49;8.60;;;6.30;;
40162;SDS011;25881;47.462;19.304;2022-08-19T07:01:17;13.30;;;7.55;;
40162;SDS011;25881;47.462;19.304;2022-08-19T07:03:43;9.18;;;7.28;;
40162;SDS011;25881;47.462;19.304;2022-08-19T07:06:10;10.70;;;6.43;;
40162;SDS011;25881;47.462;19.304;2022-08-19T07:08:35;10.83;;;7.17;;
40162;SDS011;25881;47.462;19.304;2022-08-19T07:11:01;9.93;;;7.00;;
40162;SDS011;25881;47.462;19.304;2022-08-19T07:13:27;9.82;;;7.00;;
40162;SDS011;25881;47.462;19.304;2022-08-19T07:15:52;13.53;;;6.97;;
40162;SDS011;25881;47.462;19.304;2022-08-19T07:18:18;11.07;;;7.27;;
40162;SDS011;25881;47.462;19.304;2022-08-19T07:20:45;23.93;;;7.80;;
40162;SDS011;25881;47.462;19.304;2022-08-19T07:23:10;11.27;;;6.90;;
40162;SDS011;25881;47.462;19.304;2022-08-19T07:25:36;11.60;;;7.20;;
40162;SDS011;25881;47.462;19.304;2022-08-19T07:28:02;9.50;;;6.90;;
40162;SDS011;25881;47.462;19.304;2022-08-19T07:30:27;9.52;;;6.10;;
40162;SDS011;25881;47.462;19.304;2022-08-19T07:32:52;14.80;;;7.73;;
40162;SDS011;25881;47.462;19.304;2022-08-19T07:35:17;9.75;;;7.18;;
40162;SDS011;25881;47.462;19.304;2022-08-19T07:37:44;8.68;;;6.60;;
40162;SDS011;25881;47.462;19.304;2022-08-19T07:40:10;9.48;;;6.63;;
40162;SDS011;25881;47.462;19.304;2022-08-19T07:42:35;10.95;;;6.68;;
40162;SDS011;25881;47.462;19.304;2022-08-19T07:45:01;8.37;;;6.47;;
40162;SDS011;25881;47.462;19.304;2022-08-19T07:47:26;12.93;;;7.50;;
40162;SDS011;25881;47.462;19.304;2022-08-19T07:49:52;11.15;;;6.80;;
40162;SDS011;25881;47.462;19.304;2022-08-19T07:52:17;9.63;;;6.97;;
40162;SDS011;25881;47.462;19.304;2022-08-19T07:54:43;9.38;;;6.63;;
40162;SDS011;25881;47.462;19.304;2022-08-19T07:57:08;13.47;;;6.70;;
40162;SDS011;25881;47.462;19.304;2022-08-19T07:59:33;7.67;;;6.87;;
40162;SDS011;25881;47.462;19.304;2022-08-19T08:01:59;9.20;;;6.47;;
40162;SDS011;25881;47.462;19.304;2022-08-19T08:04:27;10.88;;;6.82;;
40162;SDS011;25881;47.462;19.304;2022-08-19T08:07:11;11.40;;;6.72;;
40162;SDS011;25881;47.462;19.304;2022-08-19T08:09:55;12.90;;;7.30;;
40162;SDS011;25881;47.462;19.304;2022-08-19T08:12:22;9.00;;;6.82;;
40162;SDS011;25881;47.462;19.304;2022-08-19T08:14:50;8.95;;;6.95;;
40162;SDS011;25881;47.462;19.304;2022-08-19T08:17:16;9.57;;;6.53;;
40162;SDS011;25881;47.462;19.304;2022-08-19T08:19:42;13.05;;;6.90;;
40162;SDS011;25881;47.462;19.304;2022-08-19T08:22:08;12.30;;;7.07;;
40162;SDS011;25881;47.462;19.304;2022-08-19T08:24:53;11.95;;;6.07;;
40162;SDS011;25881;47.462;19.304;2022-08-19T08:27:18;10.37;;;6.73;;
40162;SDS011;25881;47.462;19.304;2022-08-19T08:29:44;14.00;;;6.90;;
40162;SDS011;25881;47.462;19.304;2022-08-19T08:32:09;9.18;;;6.53;;
40162;SDS011;25881;47.462;19.304;2022-08-19T08:34:34;6.83;;;6.10;;
40162;SDS011;25881;47.462;19.304;2022-08-19T08:36:59;8.87;;;6.53;;
40162;SDS011;25881;47.462;19.304;2022-08-19T08:39:24;8.80;;;6.70;;
40162;SDS011;25881;47.462;19.304;2022-08-19T08:41:56;12.93;;;6.60;;
40162;SDS011;25881;47.462;19.304;2022-08-19T08:44:25;9.15;;;6.50;;
40162;SDS011;25881;47.462;19.304;2022-08-19T08:46:55;8.48;;;6.43;;
40162;SDS011;25881;47.462;19.304;2022-08-19T08:51:48;10.10;;;5.67;;
40162;SDS011;25881;47.462;19.304;2022-08-19T08:54:19;8.52;;;6.57;;
40162;SDS011;25881;47.462;19.304;2022-08-19T08:56:45;10.30;;;5.85;;
40162;SDS011;25881;47.462;19.304;2022-08-19T09:01:37;8.33;;;6.37;;
40162;SDS011;25881;47.462;19.304;2022-08-19T09:04:04;9.63;;;6.35;;
40162;SDS011;25881;47.462;19.304;2022-08-19T09:12:08;11.07;;;5.90;;
40162;SDS011;25881;47.462;19.304;2022-08-19T09:17:10;8.38;;;6.00;;
40162;SDS011;25881;47.462;19.304;2022-08-19T09:19:36;19.70;;;5.97;;
40162;SDS011;25881;47.462;19.304;2022-08-19T09:22:11;10.38;;;6.00;;
40162;SDS011;25881;47.462;19.304;2022-08-19T09:24:36;9.50;;;6.03;;
40162;SDS011;25881;47.462;19.304;2022-08-19T09:27:03;10.98;;;5.57;;
40162;SDS011;25881;47.462;19.304;2022-08-19T09:29:29;11.60;;;6.25;;
40162;SDS011;25881;47.462;19.304;2022-08-19T09:31:54;9.35;;;5.20;;
40162;SDS011;25881;47.462;19.304;2022-08-19T09:34:19;8.65;;;5.60;;
40162;SDS011;25881;47.462;19.304;2022-08-19T09:36:45;11.77;;;5.77;;
40162;SDS011;25881;47.462;19.304;2022-08-19T09:39:10;11.13;;;5.93;;
40162;SDS011;25881;47.462;19.304;2022-08-19T09:41:36;9.68;;;6.07;;
40162;SDS011;25881;47.462;19.304;2022-08-19T09:44:01;7.63;;;5.83;;
40162;SDS011;25881;47.462;19.304;2022-08-19T09:46:28;8.90;;;5.72;;
40162;SDS011;25881;47.462;19.304;2022-08-19T09:48:53;9.35;;;5.93;;
40162;SDS011;25881;47.462;19.304;2022-08-19T09:51:22;6.07;;;5.47;;
40162;SDS011;25881;47.462;19.304;2022-08-19T09:53:49;7.47;;;5.70;;
40162;SDS011;25881;47.462;19.304;2022-08-19T09:56:19;9.25;;;6.00;;
40162;SDS011;25881;47.462;19.304;2022-08-19T09:58:45;9.88;;;5.43;;
40162;SDS011;25881;47.462;19.304;2022-08-19T10:01:15;8.32;;;5.35;;
40162;SDS011;25881;47.462;19.304;2022-08-19T10:03:40;7.20;;;5.13;;
40162;SDS011;25881;47.462;19.304;2022-08-19T10:06:06;15.43;;;5.80;;
40162;SDS011;25881;47.462;19.304;2022-08-19T10:08:33;7.13;;;6.03;;
40162;SDS011;25881;47.462;19.304;2022-08-19T10:10:59;7.95;;;5.82;;
40162;SDS011;25881;47.462;19.304;2022-08-19T10:13:25;12.52;;;5.50;;
40162;SDS011;25881;47.462;19.304;2022-08-19T10:15:56;11.45;;;5.88;;
40162;SDS011;25881;47.462;19.304;2022-08-19T10:18:21;11.50;;;7.30;;
40162;SDS011;25881;47.462;19.304;2022-08-19T10:20:47;7.50;;;5.82;;
40162;SDS011;25881;47.462;19.304;2022-08-19T10:23:12;6.60;;;5.20;;
40162;SDS011;25881;47.462;19.304;2022-08-19T10:25:38;10.02;;;5.85;;
40162;SDS011;25881;47.462;19.304;2022-08-19T10:28:03;8.55;;;5.82;;
40162;SDS011;25881;47.462;19.304;2022-08-19T10:30:29;8.40;;;5.80;;
40162;SDS011;25881;47.462;19.304;2022-08-19T10:32:54;11.70;;;5.78;;
40162;SDS011;25881;47.462;19.304;2022-08-19T10:35:19;9.73;;;5.70;;
40162;SDS011;25881;47.462;19.304;2022-08-19T10:37:45;9.88;;;5.55;;
40162;SDS011;25881;47.462;19.304;2022-08-19T10:40:10;9.97;;;5.33;;
40162;SDS011;25881;47.462;19.304;2022-08-19T10:42:36;8.68;;;5.00;;
40162;SDS011;25881;47.462;19.304;2022-08-19T10:45:02;8.95;;;5.72;;
40162;SDS011;25881;47.462;19.304;2022-08-19T10:47:27;9.07;;;5.40;;
40162;SDS011;25881;47.462;19.304;2022-08-19T10:49:53;8.43;;;4.80;;
40162;SDS011;25881;47.462;19.304;2022-08-19T10:52:38;9.30;;;5.57;;
40162;SDS011;25881;47.462;19.304;2022-08-19T10:55:04;15.15;;;5.15;;
40162;SDS011;25881;47.462;19.304;2022-08-19T10:57:48;10.63;;;5.53;;
40162;SDS011;25881;47.462;19.304;2022-08-19T11:00:14;8.30;;;5.30;;
40162;SDS011;25881;47.462;19.304;2022-08-19T11:02:39;11.70;;;5.45;;
40162;SDS011;25881;47.462;19.304;2022-08-19T11:05:06;11.13;;;6.00;;
40162;SDS011;25881;47.462;19.304;2022-08-19T11:07:32;9.75;;;5.10;;
40162;SDS011;25881;47.462;19.304;2022-08-19T11:09:57;8.65;;;4.88;;
40162;SDS011;25881;47.462;19.304;2022-08-19T11:12:22;7.57;;;4.80;;
40162;SDS011;25881;47.462;19.304;2022-08-19T11:14:48;8.02;;;4.47;;
40162;SDS011;25881;47.462;19.304;2022-08-19T11:17:14;7.57;;;4.68;;
40162;SDS011;25881;47.462;19.304;2022-08-19T11:19:40;8.35;;;5.10;;
40162;SDS011;25881;47.462;19.304;2022-08-19T11:22:07;7.97;;;4.43;;
40162;SDS011;25881;47.462;19.304;2022-08-19T11:24:33;11.32;;;5.55;;
40162;SDS011;25881;47.462;19.304;2022-08-19T11:27:05;7.53;;;4.90;;
40162;SDS011;25881;47.462;19.304;2022-08-19T11:29:31;10.93;;;5.55;;
40162;SDS011;25881;47.462;19.304;2022-08-19T11:31:57;9.35;;;5.22;;
40162;SDS011;25881;47.462;19.304;2022-08-19T11:34:23;9.18;;;5.30;;
40162;SDS011;25881;47.462;19.304;2022-08-19T11:36:50;12.90;;;4.88;;
40162;SDS011;25881;47.462;19.304;2022-08-19T11:39:16;11.20;;;5.13;;
40162;SDS011;25881;47.462;19.304;2022-08-19T11:41:42;13.77;;;5.40;;
40162;SDS011;25881;47.462;19.304;2022-08-19T11:44:07;10.43;;;5.40;;
40162;SDS011;25881;47.462;19.304;2022-08-19T11:46:33;10.03;;;4.50;;
40162;SDS011;25881;47.462;19.304;2022-08-19T11:48:59;10.75;;;5.45;;
40162;SDS011;25881;47.462;19.304;2022-08-19T11:51:25;11.10;;;4.82;;
40162;SDS011;25881;47.462;19.304;2022-08-19T11:53:52;9.18;;;5.60;;
40162;SDS011;25881;47.462;19.304;2022-08-19T11:56:18;9.13;;;5.05;;
40162;SDS011;25881;47.462;19.304;2022-08-19T11:58:43;9.20;;;4.93;;
40162;SDS011;25881;47.462;19.304;2022-08-19T12:01:09;10.52;;;5.13;;
40162;SDS011;25881;47.462;19.304;2022-08-19T12:03:36;12.20;;;4.82;;
40162;SDS011;25881;47.462;19.304;2022-08-19T12:06:08;9.55;;;5.03;;
40162;SDS011;25881;47.462;19.304;2022-08-19T12:08:35;8.88;;;5.50;;
40162;SDS011;25881;47.462;19.304;2022-08-19T12:11:01;10.05;;;4.47;;
40162;SDS011;25881;47.462;19.304;2022-08-19T12:13:27;8.90;;;4.97;;
40162;SDS011;25881;47.462;19.304;2022-08-19T12:15:52;9.38;;;4.40;;
40162;SDS011;25881;47.462;19.304;2022-08-19T12:18:18;10.18;;;4.90;;
40162;SDS011;25881;47.462;19.304;2022-08-19T12:20:43;8.63;;;4.87;;
40162;SDS011;25881;47.462;19.304;2022-08-19T12:23:09;11.77;;;4.95;;
40162;SDS011;25881;47.462;19.304;2022-08-19T12:25:36;9.52;;;4.60;;
40162;SDS011;25881;47.462;19.304;2022-08-19T12:28:02;11.60;;;4.45;;
40162;SDS011;25881;47.462;19.304;2022-08-19T12:30:28;9.35;;;4.78;;
40162;SDS011;25881;47.462;19.304;2022-08-19T12:32:53;10.17;;;4.90;;
40162;SDS011;25881;47.462;19.304;2022-08-19T12:35:18;10.88;;;4.55;;
40162;SDS011;25881;47.462;19.304;2022-08-19T12:37:45;9.48;;;5.15;;
40162;SDS011;25881;47.462;19.304;2022-08-19T12:40:11;10.73;;;5.13;;
40162;SDS011;25881;47.462;19.304;2022-08-19T12:42:37;13.18;;;6.22;;
40162;SDS011;25881;47.462;19.304;2022-08-19T12:45:02;14.88;;;5.80;;
40162;SDS011;25881;47.462;19.304;2022-08-19T12:47:28;10.82;;;5.70;;
40162;SDS011;25881;47.462;19.304;2022-08-19T12:49:53;12.75;;;5.68;;
40162;SDS011;25881;47.462;19.304;2022-08-19T12:52:19;9.35;;;5.68;;
40162;SDS011;25881;47.462;19.304;2022-08-19T12:54:46;13.25;;;5.63;;
40162;SDS011;25881;47.462;19.304;2022-08-19T12:57:11;8.10;;;5.28;;
40162;SDS011;25881;47.462;19.304;2022-08-19T12:59:37;10.48;;;5.38;;
40162;SDS011;25881;47.462;19.304;2022-08-19T13:02:03;12.00;;;5.95;;
40162;SDS011;25881;47.462;19.304;2022-08-19T13:06:56;10.65;;;5.10;;
40162;SDS011;25881;47.462;19.304;2022-08-19T13:09:21;11.63;;;5.20;;
40162;SDS011;25881;47.462;19.304;2022-08-19T13:11:46;11.18;;;5.15;;
40162;SDS011;25881;47.462;19.304;2022-08-19T13:14:12;15.33;;;5.87;;
40162;SDS011;25881;47.462;19.304;2022-08-19T13:16:37;12.00;;;5.82;;
40162;SDS011;25881;47.462;19.304;2022-08-19T13:19:03;16.50;;;7.63;;
40162;SDS011;25881;47.462;19.304;2022-08-19T13:21:30;9.40;;;6.85;;
40162;SDS011;25881;47.462;19.304;2022-08-19T13:23:55;11.10;;;6.00;;
40162;SDS011;25881;47.462;19.304;2022-08-19T13:26:21;12.07;;;5.97;;
40162;SDS011;25881;47.462;19.304;2022-08-19T13:28:46;9.27;;;5.28;;
40162;SDS011;25881;47.462;19.304;2022-08-19T13:31:31;9.18;;;6.10;;
40162;SDS011;25881;47.462;19.304;2022-08-19T13:34:17;11.02;;;5.65;;
40162;SDS011;25881;47.462;19.304;2022-08-19T13:36:43;8.77;;;5.03;;
40162;SDS011;25881;47.462;19.304;2022-08-19T13:39:08;9.15;;;5.30;;
40162;SDS011;25881;47.462;19.304;2022-08-19T13:41:34;12.70;;;5.10;;
40162;SDS011;25881;47.462;19.304;2022-08-19T13:44:00;11.38;;;5.63;;
40162;SDS011;25881;47.462;19.304;2022-08-19T13:46:26;10.93;;;4.97;;
40162;SDS011;25881;47.462;19.304;2022-08-19T13:48:52;13.07;;;5.53;;
40162;SDS011;25881;47.462;19.304;2022-08-19T13:51:17;14.10;;;5.45;;
40162;SDS011;25881;47.462;19.304;2022-08-19T13:53:43;14.15;;;5.45;;
40162;SDS011;25881;47.462;19.304;2022-08-19T13:56:10;12.27;;;5.65;;
40162;SDS011;25881;47.462;19.304;2022-08-19T13:58:35;13.18;;;5.75;;
40162;SDS011;25881;47.462;19.304;2022-08-19T14:01:01;15.20;;;5.57;;
40162;SDS011;25881;47.462;19.304;2022-08-19T14:03:27;12.32;;;5.78;;
40162;SDS011;25881;47.462;19.304;2022-08-19T14:05:52;11.57;;;6.30;;
40162;SDS011;25881;47.462;19.304;2022-08-19T14:08:18;9.48;;;5.53;;
40162;SDS011;25881;47.462;19.304;2022-08-19T14:10:43;12.30;;;5.90;;
40162;SDS011;25881;47.462;19.304;2022-08-19T14:13:09;13.43;;;6.00;;
40162;SDS011;25881;47.462;19.304;2022-08-19T14:15:35;10.32;;;5.95;;
40162;SDS011;25881;47.462;19.304;2022-08-19T14:18:02;11.30;;;5.55;;
40162;SDS011;25881;47.462;19.304;2022-08-19T14:20:28;14.63;;;5.95;;
40162;SDS011;25881;47.462;19.304;2022-08-19T14:22:54;14.45;;;5.85;;
40162;SDS011;25881;47.462;19.304;2022-08-19T14:25:21;10.45;;;6.22;;
40162;SDS011;25881;47.462;19.304;2022-08-19T14:27:46;11.68;;;5.80;;
40162;SDS011;25881;47.462;19.304;2022-08-19T14:30:13;15.23;;;5.72;;
40162;SDS011;25881;47.462;19.304;2022-08-19T14:32:39;28.53;;;5.40;;
40162;SDS011;25881;47.462;19.304;2022-08-19T14:35:05;33.78;;;6.15;;
40162;SDS011;25881;47.462;19.304;2022-08-19T14:37:32;25.63;;;6.03;;
40162;SDS011;25881;47.462;19.304;2022-08-19T14:39:58;32.60;;;6.38;;
40162;SDS011;25881;47.462;19.304;2022-08-19T14:42:23;30.20;;;5.33;;